Terminal Aerodrome Forecast
Issued by NWS

Home | Current Version | Previous Version | Text Only | Print | Product List | Glossary On
Versions: 1 2 3 4 5 6 7 8 9 10 11 12 13 14 15 16 17 18 19 20 21 22 23 24 25 26 27 28 29 30 31 32 33 34 35
000
FTUS41 KBOX 080101 AAA
TAFFMH
TAF AMD
KFMH 080101Z 0801/0824 21010G19KT P6SM OVC008
     FM080300 21010KT 5SM BR SCT003 BKN008
     FM080500 21009KT 3SM BR OVC003
     FM081200 22009KT 5SM BR SCT003
     FM081300 22009KT P6SM SCT250
     FM081600 23009KT P6SM BKN080=

USA.gov is the U.S. government's official web portal to all federal, state and local government web resources and services.